Latest Weather Observations for Macquarie Island*

IDT60801

Issued at 6:02 pm EDT Saturday 28 February 2015 (issued every 30 minutes, with the page automatically refreshed every 10 minutes)

About weather observations | Map of weather stations | Latest weather observations for ANT | Other Formats
Station Details ID: 300004 Name: MACQUARIE ISLAND Lat: -54.50 Lon: 158.94 Height: 6.0 m
Data from the previous 72 hours. | See also: Recent months at Macquarie Island*
Date/Time
EDT
Temp
°C
App
Temp
°C
Dew
Point
Rel
Hum
%
Delta-T
°C
Wind Press
QNH
hPa
Press
MSL
hPa
Rain
since 9 am
mm
Dir
 
Spd
km/h
Gust
km/h
Spd
kts
Gust
kts
28/06:00pm 8.2 4.0 5.7 84 1.1 N 17 20 9 11 1007.6 - 0.4
28/05:30pm 8.4 4.2 5.9 84 1.1 N 17 20 9 11 1007.7 - 0.4
28/05:00pm 8.7 4.5 5.8 82 1.3 NNW 17 20 9 11 1007.8 - 0.4
28/04:30pm 8.7 4.4 5.4 80 1.5 NNW 17 20 9 11 1007.7 - 0.4
28/04:00pm 8.9 4.0 5.3 78 1.6 NW 20 26 11 14 1007.7 - 0.4
28/03:30pm 9.4 3.4 5.4 76 1.8 NW 26 30 14 16 1007.9 - 0.4
28/03:00pm 9.4 4.2 5.6 77 1.7 NW 22 28 12 15 1008.0 1008.3 0.4
28/02:30pm 9.7 4.9 5.5 75 1.9 NNW 20 24 11 13 1007.7 - 0.4
28/02:00pm 9.8 5.1 6.2 78 1.7 NNW 20 28 11 15 1007.6 - 0.4
28/01:30pm 9.5 4.0 5.9 78 1.6 NNW 24 28 13 15 1007.7 - 0.4
28/01:00pm 9.1 3.1 5.5 78 1.6 NNW 26 30 14 16 1007.8 - 0.4
28/12:30pm 9.0 3.5 5.7 80 1.5 NNW 24 28 13 15 1007.8 - 0.4
28/12:00pm 8.8 2.5 5.7 81 1.4 N 28 30 15 16 1007.8 1008.1 0.4
28/11:30am 8.6 2.6 5.5 81 1.4 NNW 26 30 14 16 1007.8 - 0.4
28/11:00am 8.5 2.6 5.6 82 1.3 NNW 26 30 14 16 1007.9 - 0.4
28/10:30am 7.6 2.7 4.9 83 1.2 NW 20 30 11 16 1007.9 - 0.4
28/10:00am 8.1 3.7 4.9 80 1.4 NW 17 20 9 11 1007.9 - 0.0
28/09:30am 7.7 2.8 4.3 79 1.5 NNW 19 22 10 12 1007.7 - 0.0
28/09:00am 7.6 2.8 4.6 81 1.3 NNW 19 22 10 12 1007.8 1008.1 0.0
28/08:30am 8.2 2.8 4.4 77 1.7 NW 22 24 12 13 1007.8 - 0.0
28/08:00am 7.2 2.1 4.0 80 1.4 NW 20 26 11 14 1007.8 - 0.0
28/07:30am 6.9 1.6 3.2 77 1.6 NW 20 26 11 14 1007.7 - 0.0
28/07:00am 6.6 0.8 2.1 73 1.8 NW 22 30 12 16 1007.6 - 0.0
28/06:30am 6.8 0.9 3.8 81 1.3 NW 24 35 13 19 1007.5 - 0.0
28/06:00am 6.6 1.3 3.0 78 1.5 NW 20 24 11 13 1007.4 1007.7 0.0
28/05:30am 6.5 0.6 3.7 82 1.2 NNW 24 26 13 14 1007.3 - 0.0
28/05:00am 6.6 1.0 3.4 80 1.3 NW 22 26 12 14 1007.4 - 0.0
28/04:30am 6.5 0.3 2.4 75 1.7 NW 24 28 13 15 1007.5 - 0.0
28/04:00am 6.4 -0.1 2.7 77 1.5 NW 26 30 14 16 1007.6 - 0.0
28/03:30am 6.5 0.0 2.8 77 1.5 WNW 26 30 14 16 1007.4 - 0.0
28/03:00am 6.5 0.8 3.1 79 1.4 WNW 22 28 12 15 1007.3 1007.6 0.0
28/02:30am 5.9 1.8 2.5 79 1.4 WNW 13 15 7 8 1007.1 - 0.0
28/02:00am 5.8 1.7 2.1 77 1.5 WNW 13 15 7 8 1007.0 - 0.0
28/01:30am 5.4 2.1 2.4 81 1.2 WNW 9 13 5 7 1007.0 - 0.0
28/01:00am 5.5 2.8 2.5 81 1.2 WSW 6 7 3 4 1007.1 - 0.0
28/12:30am 5.7 2.8 2.4 79 1.3 WSW 7 15 4 8 1006.9 - 0.0
28/12:00am 5.7 0.3 2.5 80 1.3 NW 20 26 11 14 1006.9 1007.2 0.0
 
Date/Time
EDT
Temp
°C
App
Temp
°C
Dew
Point
Rel
Hum
%
Delta-T
°C
Wind Press
QNH
hPa
Press
MSL
hPa
Rain
since 9 am
mm
Dir
 
Spd
km/h
Gust
km/h
Spd
kts
Gust
kts
27/11:30pm 6.0 1.2 2.5 78 1.4 W 17 20 9 11 1006.9 - 0.0
27/11:00pm 5.7 0.4 2.0 77 1.5 W 19 24 10 13 1006.8 - 0.0
27/10:30pm 5.5 0.5 1.2 74 1.7 W 17 28 9 15 1006.6 - 0.0
27/10:00pm 5.6 0.7 1.9 77 1.5 W 17 28 9 15 1006.5 - 0.0
27/09:30pm 5.7 0.4 1.6 75 1.6 W 19 30 10 16 1006.4 - 0.0
27/09:00pm 5.7 -1.0 1.2 73 1.8 W 26 33 14 18 1006.3 1006.6 0.0
27/08:30pm 6.1 -1.2 2.4 77 1.5 W 30 35 16 19 1005.9 - 0.0
27/08:00pm 6.2 -0.3 2.5 77 1.5 W 26 33 14 18 1005.7 - 0.0
27/07:30pm 5.7 -0.9 1.8 76 1.6 W 26 37 14 20 1005.2 - 0.0
27/07:00pm 5.9 -2.7 2.4 78 1.4 W 37 48 20 26 1004.9 - 0.0
27/06:30pm 6.4 -1.5 2.5 76 1.6 W 33 41 18 22 1004.2 - 0.0
27/06:00pm 6.8 -1.5 2.3 73 1.9 W 35 50 19 27 1003.9 1004.2 0.0
27/05:30pm 6.9 -2.0 2.8 75 1.7 W 39 46 21 25 1003.5 - 0.0
27/05:00pm 7.3 -1.2 3.2 75 1.7 W 37 44 20 24 1003.1 - 0.0
27/04:30pm 6.9 -2.2 1.8 70 2.1 W 39 50 21 27 1002.9 - 0.0
27/04:00pm 8.1 -0.4 3.2 71 2.1 W 37 43 20 23 1002.7 - 0.0
27/03:30pm 8.1 -1.7 3.2 71 2.1 W 44 52 24 28 1002.4 - 0.0
27/03:00pm 7.0 -1.5 2.9 75 1.7 W 37 46 20 25 1002.1 1002.4 0.0
27/02:30pm 8.2 -1.5 2.9 69 2.2 W 43 50 23 27 1001.8 - 0.0
27/02:00pm 8.5 -1.3 2.3 65 2.6 W 43 50 23 27 1001.6 - 0.0
27/01:30pm 7.7 -2.0 2.6 70 2.1 W 43 52 23 28 1001.2 - 0.0
27/01:00pm 7.8 -1.9 2.9 71 2.1 W 43 54 23 29 1000.8 - 0.0
27/12:30pm 7.8 -1.9 2.9 71 2.1 W 43 54 23 29 1000.6 - 0.0
27/12:00pm 7.4 -3.4 1.7 67 2.3 W 48 61 26 33 1000.3 1000.6 0.0
27/11:30am 6.2 -4.9 2.3 76 1.6 W 50 59 27 32 1000.0 - 0.0
27/11:17am 7.0 -3.3 2.5 73 1.9 W 46 57 25 31 1000.1 - 0.0
27/11:00am 7.7 -2.5 3.4 74 1.8 WNW 46 57 25 31 999.5 - 0.0
27/10:30am 7.9 -2.4 2.4 68 2.3 W 46 59 25 32 999.0 - 0.0
27/10:00am 7.5 -3.2 2.6 71 2.0 W 48 65 26 35 998.8 - 0.0
27/09:30am 7.5 -3.7 2.0 68 2.3 W 50 65 27 35 998.2 - 0.0
27/09:00am 6.9 -3.4 2.6 74 1.8 W 46 61 25 33 997.7 998.0 3.8
27/08:30am 6.7 -4.9 1.6 70 2.1 W 52 63 28 34 997.1 - 3.8
27/08:00am 6.2 -5.7 2.3 76 1.6 W 54 67 29 36 996.8 - 3.8
27/07:48am 6.2 -4.9 2.3 76 1.6 WNW 50 72 27 39 996.8 - 3.8
27/07:30am 6.4 -5.5 1.9 73 1.8 W 54 67 29 36 996.3 - 3.8
27/07:00am 6.1 -5.5 2.0 75 1.7 W 52 65 28 35 995.8 - 3.8
27/06:41am 5.9 -5.5 2.7 80 1.3 WNW 52 72 28 39 995.2 - 3.8
27/06:30am 5.8 -5.6 2.8 81 1.2 W 52 65 28 35 995.1 - 3.8
27/06:00am 5.4 -5.2 2.9 84 1.0 W 48 70 26 38 994.5 994.8 3.8
27/05:30am 4.3 -9.0 1.8 84 1.0 W 61 83 33 45 994.2 - 3.6
27/05:00am 5.4 -6.5 2.1 79 1.3 W 54 72 29 39 993.4 - 3.2
27/04:47am 5.5 -6.3 2.7 82 1.1 W 54 72 29 39 993.3 - 3.2
27/04:30am 5.2 -7.1 2.2 81 1.2 W 56 70 30 38 992.9 - 3.2
27/04:02am 5.7 -6.2 2.2 78 1.4 W 54 76 29 41 992.4 - 3.0
27/04:00am 5.7 -6.1 2.5 80 1.3 WNW 54 69 29 37 992.5 - 3.0
27/03:30am 5.5 -6.3 2.5 81 1.2 W 54 72 29 39 991.9 - 3.0
27/03:01am 5.3 -6.1 2.8 84 1.0 W 52 70 28 38 991.6 - 3.0
27/03:00am 5.4 -5.9 3.3 86 0.9 W 52 65 28 35 991.6 991.9 3.0
27/02:40am 5.5 -5.5 2.8 83 1.1 WNW 50 72 27 39 991.0 - 2.8
27/02:30am 5.1 -6.0 2.3 82 1.1 W 50 65 27 35 991.1 - 2.8
27/02:00am 5.3 -5.7 3.0 85 0.9 WNW 50 72 27 39 990.7 - 2.8
27/01:32am 5.2 -7.2 2.6 83 1.1 W 57 78 31 42 990.3 - 2.8
27/01:30am 5.4 -6.8 2.4 81 1.2 W 56 69 30 37 990.2 - 2.6
27/01:00am 5.3 -6.5 2.8 84 1.0 WNW 54 74 29 40 989.7 - 2.6
27/12:34am 4.8 -7.4 2.7 86 0.9 WNW 56 74 30 40 989.5 - 2.6
27/12:30am 5.0 -7.7 3.2 88 0.7 W 59 72 32 39 989.4 - 2.6
27/12:24am 5.1 -7.8 1.9 80 1.3 W 59 70 32 38 989.6 - 2.2
27/12:00am 5.9 -6.4 2.9 81 1.3 WNW 57 70 31 38 988.7 989.0 2.2
 
Date/Time
EDT
Temp
°C
App
Temp
°C
Dew
Point
Rel
Hum
%
Delta-T
°C
Wind Press
QNH
hPa
Press
MSL
hPa
Rain
since 9 am
mm
Dir
 
Spd
km/h
Gust
km/h
Spd
kts
Gust
kts
26/11:30pm 5.7 -7.4 3.2 84 1.0 WNW 61 74 33 40 988.5 - 2.2
26/11:05pm 6.3 -5.7 3.8 84 1.1 WNW 56 74 30 40 988.1 - 2.0
26/11:00pm 6.3 -5.4 3.6 83 1.1 NW 54 67 29 36 987.9 - 2.0
26/10:30pm 6.4 -4.4 3.9 84 1.1 WNW 50 59 27 32 987.7 - 2.0
26/10:14pm 6.6 -4.6 3.9 83 1.2 WNW 52 70 28 38 987.6 - 1.8
26/10:00pm 6.6 -4.6 3.9 83 1.2 WNW 52 69 28 37 987.4 - 1.8
26/09:30pm 6.6 -4.1 4.6 87 0.9 NW 50 63 27 34 986.9 - 1.8
26/09:00pm 6.7 -5.4 4.2 84 1.1 NW 57 69 31 37 986.6 986.9 1.8
26/08:34pm 7.4 -2.0 5.2 86 1.0 NW 44 63 24 34 986.5 - 1.8
26/08:30pm 7.5 -1.9 5.3 86 1.0 NW 44 59 24 32 986.3 - 1.8
26/08:00pm 7.1 -2.7 5.4 89 0.8 NW 46 57 25 31 986.0 - 1.8
26/07:30pm 7.3 -2.8 5.8 90 0.7 NW 48 59 26 32 985.6 - 1.8
26/07:06pm 7.4 -2.6 6.2 92 0.5 NW 48 67 26 36 985.3 - 1.8
26/07:02pm 7.6 -3.1 6.4 92 0.5 NW 52 67 28 36 985.1 - 1.8
26/07:00pm 7.7 -3.7 6.5 92 0.5 NNW 56 70 30 38 985.0 - 1.8
26/06:30pm 8.3 -2.7 6.8 90 0.7 N 54 63 29 34 984.9 - 1.4
26/06:00pm 8.4 -2.9 7.0 91 0.7 N 56 65 30 35 985.1 985.4 1.4
26/05:30pm 8.6 -3.3 7.2 91 0.7 N 59 72 32 39 985.1 - 1.2
26/05:01pm 8.7 -2.6 7.8 94 0.4 N 57 76 31 41 985.6 - 1.2
26/05:00pm 8.8 -2.9 7.9 94 0.4 N 59 76 32 41 985.7 - 1.2
26/04:30pm 8.8 -2.9 7.7 93 0.5 N 59 72 32 39 986.4 - 1.0
26/04:00pm 8.8 -2.6 7.7 93 0.5 N 57 69 31 37 987.2 - 1.0
26/03:30pm 8.8 -2.4 7.7 93 0.5 N 56 69 30 37 988.1 - 1.0
26/03:00pm 8.9 -2.4 7.8 93 0.5 N 57 72 31 39 989.0 989.3 0.4
26/02:30pm 8.9 -1.9 7.8 93 0.5 N 54 65 29 35 989.7 - 0.4
26/02:00pm 8.8 -2.4 7.7 93 0.5 N 56 69 30 37 990.4 - 0.4
26/01:30pm 8.7 -2.1 7.6 93 0.5 N 54 67 29 36 991.1 - 0.4
26/01:00pm 8.8 -2.4 7.6 92 0.6 N 56 69 30 37 991.8 - 0.4
26/12:30pm 9.2 -1.6 7.5 89 0.8 N 54 69 29 37 992.7 - 0.0
26/12:00pm 9.2 -1.3 7.5 89 0.8 N 52 61 28 33 993.6 993.9 0.0
26/11:30am 9.4 -1.4 7.5 88 0.9 N 54 63 29 34 994.4 - 0.0
26/11:00am 9.1 -1.0 7.4 89 0.8 N 50 59 27 32 995.1 - 0.0
26/10:30am 9.4 -2.0 7.7 89 0.8 N 57 65 31 35 995.8 - 0.0
26/10:00am 9.2 -1.3 7.5 89 0.8 N 52 61 28 33 996.4 - 0.0
26/09:30am 9.0 -1.1 7.5 90 0.7 N 50 61 27 33 997.1 - 0.0
26/09:00am 8.9 -1.2 7.5 91 0.7 N 50 61 27 33 997.6 997.9 0.4
26/08:30am 8.9 -1.1 7.7 92 0.6 N 50 59 27 32 998.0 - 0.4
26/08:00am 8.8 -1.3 7.6 92 0.6 N 50 59 27 32 998.4 - 0.4
26/07:30am 8.7 -1.4 7.6 93 0.5 N 50 61 27 33 998.7 - 0.4
26/07:00am 8.6 -1.5 7.5 93 0.5 N 50 57 27 31 999.0 - 0.4
26/06:30am 8.4 -1.3 7.5 94 0.4 N 48 56 26 30 999.5 - 0.4
26/06:00am 8.4 -0.9 7.5 94 0.4 N 46 54 25 29 999.8 1000.1 0.4
26/05:30am 8.3 -0.7 7.4 94 0.4 N 44 50 24 27 1000.3 - 0.4
26/05:00am 8.3 -0.7 7.4 94 0.4 N 44 50 24 27 1000.9 - 0.4
26/04:30am 8.4 -0.5 7.5 94 0.4 N 44 50 24 27 1001.2 - 0.4
26/04:00am 8.6 -0.7 7.7 94 0.4 NNW 46 52 25 28 1001.7 - 0.4
26/03:30am 8.5 -0.4 7.6 94 0.4 NNW 44 52 24 28 1002.1 - 0.4
26/03:00am 8.6 -0.7 7.7 94 0.4 NNW 46 54 25 29 1002.3 1002.6 0.4
26/02:30am 8.5 -0.4 7.7 95 0.4 NNW 44 50 24 27 1002.6 - 0.4
26/02:00am 8.5 -0.2 7.7 95 0.4 NNW 43 48 23 26 1003.0 - 0.4
26/01:30am 8.6 -0.7 7.7 94 0.4 NNW 46 54 25 29 1003.2 - 0.4
26/01:00am 8.7 -0.2 7.8 94 0.4 NNW 44 50 24 27 1003.5 - 0.4
26/12:30am 8.7 0.8 7.8 94 0.4 NNW 39 48 21 26 1003.8 - 0.4
26/12:00am 8.8 0.9 7.7 93 0.5 NNW 39 48 21 26 1004.0 1004.3 0.4
 
Date/Time
EDT
Temp
°C
App
Temp
°C
Dew
Point
Rel
Hum
%
Delta-T
°C
Wind Press
QNH
hPa
Press
MSL
hPa
Rain
since 9 am
mm
Dir
 
Spd
km/h
Gust
km/h
Spd
kts
Gust
kts
25/11:30pm 8.7 0.7 7.6 93 0.5 NNW 39 50 21 27 1004.2 - 0.4
25/11:00pm 8.7 0.7 7.6 93 0.5 NNW 39 50 21 27 1004.3 - 0.4
25/10:30pm 8.6 -0.1 7.5 93 0.5 NNW 43 56 23 30 1004.5 - 0.4
25/10:00pm 8.6 0.6 7.5 93 0.5 NNW 39 48 21 26 1004.8 - 0.4
25/09:30pm 8.6 0.2 7.5 93 0.5 NNW 41 50 22 27 1005.0 - 0.4
25/09:00pm 8.6 1.3 7.4 92 0.6 NNW 35 44 19 24 1005.4 1005.7 0.4
25/08:30pm 8.6 0.2 7.5 93 0.5 NNW 41 52 22 28 1005.5 - 0.4
25/08:00pm 8.6 0.7 7.7 94 0.4 NNW 39 48 21 26 1005.5 - 0.4
25/07:30pm 8.6 0.2 7.5 93 0.5 NNW 41 48 22 26 1005.4 - 0.4
25/07:00pm 8.6 0.2 7.5 93 0.5 NW 41 56 22 30 1005.3 - 0.4
25/06:30pm 8.7 0.0 7.6 93 0.5 NW 43 54 23 29 1005.2 - 0.4

Other Formats:

Comma delimited format used in spreadsheet applications
http://www.bom.gov.au/fwo/IDT60803/IDT60803.94998.axf

JavaScript Object Notation format (JSON) in row-major order
http://www.bom.gov.au/fwo/IDT60803/IDT60803.94998.json